sensor_id;sensor_type;location;lat;lon;timestamp;temperature;humidity
63219;DHT22;49320;52.512;13.448;2022-11-03T00:02:00;11.30;68.60
63219;DHT22;49320;52.512;13.448;2022-11-03T00:04:27;11.30;68.60
63219;DHT22;49320;52.512;13.448;2022-11-03T00:06:54;11.30;68.90
63219;DHT22;49320;52.512;13.448;2022-11-03T00:09:22;11.30;68.90
63219;DHT22;49320;52.512;13.448;2022-11-03T00:11:50;11.30;69.10
63219;DHT22;49320;52.512;13.448;2022-11-03T00:14:18;11.30;69.10
63219;DHT22;49320;52.512;13.448;2022-11-03T00:16:45;11.20;69.20
63219;DHT22;49320;52.512;13.448;2022-11-03T00:19:12;11.20;69.30
63219;DHT22;49320;52.512;13.448;2022-11-03T00:21:41;11.20;69.40
63219;DHT22;49320;52.512;13.448;2022-11-03T00:24:08;11.20;69.50
63219;DHT22;49320;52.512;13.448;2022-11-03T00:26:36;11.20;69.60
63219;DHT22;49320;52.512;13.448;2022-11-03T00:29:08;11.20;69.70
63219;DHT22;49320;52.512;13.448;2022-11-03T00:31:41;11.10;69.90
63219;DHT22;49320;52.512;13.448;2022-11-03T00:34:10;11.10;69.90
63219;DHT22;49320;52.512;13.448;2022-11-03T00:36:42;11.10;70.00
63219;DHT22;49320;52.512;13.448;2022-11-03T00:39:10;11.10;70.30
63219;DHT22;49320;52.512;13.448;2022-11-03T00:41:38;11.10;70.20
63219;DHT22;49320;52.512;13.448;2022-11-03T00:44:05;10.90;70.00
63219;DHT22;49320;52.512;13.448;2022-11-03T00:46:32;11.00;70.10
63219;DHT22;49320;52.512;13.448;2022-11-03T00:49:03;11.00;70.30
63219;DHT22;49320;52.512;13.448;2022-11-03T00:51:31;10.90;70.40
63219;DHT22;49320;52.512;13.448;2022-11-03T00:54:01;10.80;70.40
63219;DHT22;49320;52.512;13.448;2022-11-03T00:56:37;10.90;70.70
63219;DHT22;49320;52.512;13.448;2022-11-03T00:59:07;10.90;70.90
63219;DHT22;49320;52.512;13.448;2022-11-03T01:01:44;10.90;70.90
63219;DHT22;49320;52.512;13.448;2022-11-03T01:04:14;10.90;71.20
63219;DHT22;49320;52.512;13.448;2022-11-03T01:07:03;10.90;71.00
63219;DHT22;49320;52.512;13.448;2022-11-03T01:09:39;10.90;71.20
63219;DHT22;49320;52.512;13.448;2022-11-03T01:12:12;10.80;71.40
63219;DHT22;49320;52.512;13.448;2022-11-03T01:14:47;10.70;71.40
63219;DHT22;49320;52.512;13.448;2022-11-03T01:17:20;10.70;71.40
63219;DHT22;49320;52.512;13.448;2022-11-03T01:19:49;10.70;71.60
63219;DHT22;49320;52.512;13.448;2022-11-03T01:22:17;10.60;71.60
63219;DHT22;49320;52.512;13.448;2022-11-03T01:24:45;10.60;71.80
63219;DHT22;49320;52.512;13.448;2022-11-03T01:27:17;10.50;71.70
63219;DHT22;49320;52.512;13.448;2022-11-03T01:29:45;10.50;72.00
63219;DHT22;49320;52.512;13.448;2022-11-03T01:32:13;10.50;72.10
63219;DHT22;49320;52.512;13.448;2022-11-03T01:34:40;10.40;72.20
63219;DHT22;49320;52.512;13.448;2022-11-03T01:37:07;10.40;72.20
63219;DHT22;49320;52.512;13.448;2022-11-03T01:39:34;10.40;72.40
63219;DHT22;49320;52.512;13.448;2022-11-03T01:42:01;10.40;72.60
63219;DHT22;49320;52.512;13.448;2022-11-03T01:44:33;10.30;72.80
63219;DHT22;49320;52.512;13.448;2022-11-03T01:47:12;10.30;73.00
63219;DHT22;49320;52.512;13.448;2022-11-03T01:49:58;10.20;73.50
63219;DHT22;49320;52.512;13.448;2022-11-03T01:52:35;10.20;73.60
63219;DHT22;49320;52.512;13.448;2022-11-03T01:55:18;10.20;73.60
63219;DHT22;49320;52.512;13.448;2022-11-03T01:57:54;10.20;73.90
63219;DHT22;49320;52.512;13.448;2022-11-03T02:00:26;10.20;73.90
63219;DHT22;49320;52.512;13.448;2022-11-03T02:02:53;10.20;73.70
63219;DHT22;49320;52.512;13.448;2022-11-03T02:05:22;10.10;73.80
63219;DHT22;49320;52.512;13.448;2022-11-03T02:07:59;10.10;74.10
63219;DHT22;49320;52.512;13.448;2022-11-03T02:10:30;10.10;74.50
63219;DHT22;49320;52.512;13.448;2022-11-03T02:12:57;10.10;74.20
63219;DHT22;49320;52.512;13.448;2022-11-03T02:15:25;10.10;74.40
63219;DHT22;49320;52.512;13.448;2022-11-03T02:17:54;10.00;74.50
63219;DHT22;49320;52.512;13.448;2022-11-03T02:20:25;10.00;74.80
63219;DHT22;49320;52.512;13.448;2022-11-03T02:23:23;10.10;74.90
63219;DHT22;49320;52.512;13.448;2022-11-03T02:25:57;10.00;75.70
63219;DHT22;49320;52.512;13.448;2022-11-03T02:28:28;10.00;75.20
63219;DHT22;49320;52.512;13.448;2022-11-03T02:36:37;10.00;75.20
63219;DHT22;49320;52.512;13.448;2022-11-03T02:39:23;10.10;76.00
63219;DHT22;49320;52.512;13.448;2022-11-03T02:41:59;10.00;75.90
63219;DHT22;49320;52.512;13.448;2022-11-03T02:44:31;10.00;75.50
63219;DHT22;49320;52.512;13.448;2022-11-03T02:47:02;10.00;75.60
63219;DHT22;49320;52.512;13.448;2022-11-03T02:49:49;10.00;75.50
63219;DHT22;49320;52.512;13.448;2022-11-03T02:52:48;10.00;76.00
63219;DHT22;49320;52.512;13.448;2022-11-03T02:55:41;10.00;76.10
63219;DHT22;49320;52.512;13.448;2022-11-03T02:58:56;10.00;76.10
63219;DHT22;49320;52.512;13.448;2022-11-03T03:01:31;10.00;76.10
63219;DHT22;49320;52.512;13.448;2022-11-03T03:04:06;10.00;76.20
63219;DHT22;49320;52.512;13.448;2022-11-03T03:06:59;10.00;75.70
63219;DHT22;49320;52.512;13.448;2022-11-03T03:09:32;10.00;76.20
63219;DHT22;49320;52.512;13.448;2022-11-03T03:12:04;10.00;75.60
63219;DHT22;49320;52.512;13.448;2022-11-03T03:14:37;10.00;75.70
63219;DHT22;49320;52.512;13.448;2022-11-03T03:17:59;10.00;75.90
63219;DHT22;49320;52.512;13.448;2022-11-03T03:20:30;10.00;76.00
63219;DHT22;49320;52.512;13.448;2022-11-03T03:23:15;10.10;76.10
63219;DHT22;49320;52.512;13.448;2022-11-03T03:25:49;10.00;76.00
63219;DHT22;49320;52.512;13.448;2022-11-03T03:28:38;10.00;75.90
63219;DHT22;49320;52.512;13.448;2022-11-03T03:31:13;10.00;76.20
63219;DHT22;49320;52.512;13.448;2022-11-03T03:33:44;10.00;75.70
63219;DHT22;49320;52.512;13.448;2022-11-03T03:36:15;10.10;75.90
63219;DHT22;49320;52.512;13.448;2022-11-03T03:38:47;10.10;75.90
63219;DHT22;49320;52.512;13.448;2022-11-03T03:41:17;10.10;76.00
63219;DHT22;49320;52.512;13.448;2022-11-03T03:43:51;10.00;76.50
63219;DHT22;49320;52.512;13.448;2022-11-03T03:46:22;10.10;75.60
63219;DHT22;49320;52.512;13.448;2022-11-03T03:48:52;10.10;75.70
63219;DHT22;49320;52.512;13.448;2022-11-03T03:51:22;10.00;75.60
63219;DHT22;49320;52.512;13.448;2022-11-03T03:53:53;10.10;75.80
63219;DHT22;49320;52.512;13.448;2022-11-03T03:58:59;10.10;76.00
63219;DHT22;49320;52.512;13.448;2022-11-03T04:01:26;10.10;75.60
63219;DHT22;49320;52.512;13.448;2022-11-03T04:03:53;10.10;75.60
63219;DHT22;49320;52.512;13.448;2022-11-03T04:06:20;10.10;75.70
63219;DHT22;49320;52.512;13.448;2022-11-03T04:08:47;10.10;76.50
63219;DHT22;49320;52.512;13.448;2022-11-03T04:11:13;9.80;75.60
63219;DHT22;49320;52.512;13.448;2022-11-03T04:13:59;10.10;75.80
63219;DHT22;49320;52.512;13.448;2022-11-03T04:16:44;10.00;75.80
63219;DHT22;49320;52.512;13.448;2022-11-03T04:19:30;10.10;75.90
63219;DHT22;49320;52.512;13.448;2022-11-03T04:22:16;10.00;75.90
63219;DHT22;49320;52.512;13.448;2022-11-03T04:24:45;9.90;75.90
63219;DHT22;49320;52.512;13.448;2022-11-03T04:27:38;9.90;76.00
63219;DHT22;49320;52.512;13.448;2022-11-03T04:30:13;9.90;76.60
63219;DHT22;49320;52.512;13.448;2022-11-03T04:32:43;9.90;76.10
63219;DHT22;49320;52.512;13.448;2022-11-03T04:35:22;9.90;76.20
63219;DHT22;49320;52.512;13.448;2022-11-03T04:37:55;9.80;76.50
63219;DHT22;49320;52.512;13.448;2022-11-03T04:40:26;9.80;76.30
63219;DHT22;49320;52.512;13.448;2022-11-03T04:42:54;9.80;76.40
63219;DHT22;49320;52.512;13.448;2022-11-03T04:45:28;9.80;76.50
63219;DHT22;49320;52.512;13.448;2022-11-03T04:47:58;9.80;76.60
63219;DHT22;49320;52.512;13.448;2022-11-03T04:50:27;9.70;76.60
63219;DHT22;49320;52.512;13.448;2022-11-03T04:52:56;9.70;77.30
63219;DHT22;49320;52.512;13.448;2022-11-03T04:55:24;9.60;76.90
63219;DHT22;49320;52.512;13.448;2022-11-03T04:57:56;9.70;77.00
63219;DHT22;49320;52.512;13.448;2022-11-03T05:00:25;9.70;77.20
63219;DHT22;49320;52.512;13.448;2022-11-03T05:02:52;9.70;77.00
63219;DHT22;49320;52.512;13.448;2022-11-03T05:05:23;9.70;76.90
63219;DHT22;49320;52.512;13.448;2022-11-03T05:07:54;9.70;77.10
63219;DHT22;49320;52.512;13.448;2022-11-03T05:10:26;9.60;77.20
63219;DHT22;49320;52.512;13.448;2022-11-03T05:12:55;9.70;77.40
63219;DHT22;49320;52.512;13.448;2022-11-03T05:15:36;9.70;77.20
63219;DHT22;49320;52.512;13.448;2022-11-03T05:18:30;9.70;77.50
63219;DHT22;49320;52.512;13.448;2022-11-03T05:21:09;9.70;77.90
63219;DHT22;49320;52.512;13.448;2022-11-03T05:23:51;9.70;77.40
63219;DHT22;49320;52.512;13.448;2022-11-03T05:26:27;9.60;77.80
63219;DHT22;49320;52.512;13.448;2022-11-03T05:29:03;9.60;77.70
63219;DHT22;49320;52.512;13.448;2022-11-03T05:31:37;9.60;77.60
63219;DHT22;49320;52.512;13.448;2022-11-03T05:34:31;9.60;77.50
63219;DHT22;49320;52.512;13.448;2022-11-03T05:37:32;9.60;78.20
63219;DHT22;49320;52.512;13.448;2022-11-03T05:40:23;9.60;78.60
63219;DHT22;49320;52.512;13.448;2022-11-03T05:43:01;9.60;78.40
63219;DHT22;49320;52.512;13.448;2022-11-03T05:45:32;9.50;78.30
63219;DHT22;49320;52.512;13.448;2022-11-03T05:48:01;9.50;78.10
63219;DHT22;49320;52.512;13.448;2022-11-03T05:50:33;9.50;78.00
63219;DHT22;49320;52.512;13.448;2022-11-03T05:55:48;9.40;78.50
63219;DHT22;49320;52.512;13.448;2022-11-03T05:58:36;9.40;78.10
63219;DHT22;49320;52.512;13.448;2022-11-03T06:01:27;9.40;78.70
63219;DHT22;49320;52.512;13.448;2022-11-03T06:03:59;9.40;78.90
63219;DHT22;49320;52.512;13.448;2022-11-03T06:06:34;9.40;78.60
63219;DHT22;49320;52.512;13.448;2022-11-03T06:09:14;9.30;78.70
63219;DHT22;49320;52.512;13.448;2022-11-03T06:11:43;9.40;79.70
63219;DHT22;49320;52.512;13.448;2022-11-03T06:14:17;9.40;78.50
63219;DHT22;49320;52.512;13.448;2022-11-03T06:17:06;9.40;78.90
63219;DHT22;49320;52.512;13.448;2022-11-03T06:19:44;9.40;78.80
63219;DHT22;49320;52.512;13.448;2022-11-03T06:22:27;9.30;78.90
63219;DHT22;49320;52.512;13.448;2022-11-03T06:28:04;9.40;79.50
63219;DHT22;49320;52.512;13.448;2022-11-03T06:30:38;9.30;78.90
63219;DHT22;49320;52.512;13.448;2022-11-03T06:33:25;9.40;79.00
63219;DHT22;49320;52.512;13.448;2022-11-03T06:35:59;9.40;79.30
63219;DHT22;49320;52.512;13.448;2022-11-03T06:38:29;9.40;79.10
63219;DHT22;49320;52.512;13.448;2022-11-03T06:40:59;9.40;78.90
63219;DHT22;49320;52.512;13.448;2022-11-03T06:43:34;9.40;78.70
63219;DHT22;49320;52.512;13.448;2022-11-03T06:46:18;9.40;79.10
63219;DHT22;49320;52.512;13.448;2022-11-03T06:48:47;9.40;79.20
63219;DHT22;49320;52.512;13.448;2022-11-03T06:51:18;9.40;78.90
63219;DHT22;49320;52.512;13.448;2022-11-03T06:53:48;9.40;79.20
63219;DHT22;49320;52.512;13.448;2022-11-03T06:56:21;9.50;78.70
63219;DHT22;49320;52.512;13.448;2022-11-03T06:58:51;9.50;79.40
63219;DHT22;49320;52.512;13.448;2022-11-03T07:01:29;9.50;79.20
63219;DHT22;49320;52.512;13.448;2022-11-03T07:04:02;9.50;79.40
63219;DHT22;49320;52.512;13.448;2022-11-03T07:06:56;9.50;79.20
63219;DHT22;49320;52.512;13.448;2022-11-03T07:09:26;9.50;79.00
63219;DHT22;49320;52.512;13.448;2022-11-03T07:11:56;9.50;78.90
63219;DHT22;49320;52.512;13.448;2022-11-03T07:14:30;8.60;78.60
63219;DHT22;49320;52.512;13.448;2022-11-03T07:17:01;9.60;79.50
63219;DHT22;49320;52.512;13.448;2022-11-03T07:19:39;9.60;79.50
63219;DHT22;49320;52.512;13.448;2022-11-03T07:22:18;9.70;79.80
63219;DHT22;49320;52.512;13.448;2022-11-03T07:24:56;9.80;79.80
63219;DHT22;49320;52.512;13.448;2022-11-03T07:27:28;9.70;79.80
63219;DHT22;49320;52.512;13.448;2022-11-03T07:30:17;9.80;79.60
63219;DHT22;49320;52.512;13.448;2022-11-03T07:33:19;9.80;80.00
63219;DHT22;49320;52.512;13.448;2022-11-03T07:35:48;9.70;80.00
63219;DHT22;49320;52.512;13.448;2022-11-03T07:38:37;10.00;79.60
63219;DHT22;49320;52.512;13.448;2022-11-03T07:41:05;10.00;79.60
63219;DHT22;49320;52.512;13.448;2022-11-03T07:43:38;10.10;79.50
63219;DHT22;49320;52.512;13.448;2022-11-03T07:46:12;10.10;80.00
63219;DHT22;49320;52.512;13.448;2022-11-03T07:48:47;10.20;79.40
63219;DHT22;49320;52.512;13.448;2022-11-03T07:51:21;10.20;79.30
63219;DHT22;49320;52.512;13.448;2022-11-03T07:53:51;10.30;79.30
63219;DHT22;49320;52.512;13.448;2022-11-03T07:56:33;10.40;79.30
63219;DHT22;49320;52.512;13.448;2022-11-03T08:01:40;10.60;79.00
63219;DHT22;49320;52.512;13.448;2022-11-03T08:04:12;10.70;78.80
63219;DHT22;49320;52.512;13.448;2022-11-03T08:06:45;10.70;78.60
63219;DHT22;49320;52.512;13.448;2022-11-03T08:09:13;10.70;78.40
63219;DHT22;49320;52.512;13.448;2022-11-03T08:11:40;10.90;78.20
63219;DHT22;49320;52.512;13.448;2022-11-03T08:14:07;10.90;78.00
63219;DHT22;49320;52.512;13.448;2022-11-03T08:16:35;11.00;77.90
63219;DHT22;49320;52.512;13.448;2022-11-03T08:19:02;11.00;77.70
63219;DHT22;49320;52.512;13.448;2022-11-03T08:21:29;11.10;77.60
63219;DHT22;49320;52.512;13.448;2022-11-03T08:23:55;11.10;77.40
63219;DHT22;49320;52.512;13.448;2022-11-03T08:26:22;11.20;77.20
63219;DHT22;49320;52.512;13.448;2022-11-03T08:28:49;11.10;77.10
63219;DHT22;49320;52.512;13.448;2022-11-03T08:31:16;11.30;77.20
63219;DHT22;49320;52.512;13.448;2022-11-03T08:33:43;11.40;77.10
63219;DHT22;49320;52.512;13.448;2022-11-03T08:36:11;11.40;76.90
63219;DHT22;49320;52.512;13.448;2022-11-03T08:38:38;11.40;76.80
63219;DHT22;49320;52.512;13.448;2022-11-03T08:41:05;11.50;76.70
63219;DHT22;49320;52.512;13.448;2022-11-03T08:43:32;11.50;76.60
63219;DHT22;49320;52.512;13.448;2022-11-03T08:45:58;11.60;76.30
63219;DHT22;49320;52.512;13.448;2022-11-03T08:48:38;11.60;76.20
63219;DHT22;49320;52.512;13.448;2022-11-03T08:51:05;11.70;76.20
63219;DHT22;49320;52.512;13.448;2022-11-03T08:53:33;11.70;76.10
63219;DHT22;49320;52.512;13.448;2022-11-03T08:56:00;11.80;76.00
63219;DHT22;49320;52.512;13.448;2022-11-03T08:58:28;11.90;76.00
63219;DHT22;49320;52.512;13.448;2022-11-03T09:00:55;12.00;75.90
63219;DHT22;49320;52.512;13.448;2022-11-03T09:03:22;12.00;75.80
63219;DHT22;49320;52.512;13.448;2022-11-03T09:05:50;12.00;75.60
63219;DHT22;49320;52.512;13.448;2022-11-03T09:08:16;12.10;75.40
63219;DHT22;49320;52.512;13.448;2022-11-03T09:11:03;12.20;75.20
63219;DHT22;49320;52.512;13.448;2022-11-03T09:13:30;12.20;75.10
63219;DHT22;49320;52.512;13.448;2022-11-03T09:15:57;12.30;75.10
63219;DHT22;49320;52.512;13.448;2022-11-03T09:18:23;12.40;74.90
63219;DHT22;49320;52.512;13.448;2022-11-03T09:20:50;12.40;74.70
63219;DHT22;49320;52.512;13.448;2022-11-03T09:23:17;12.50;74.60
63219;DHT22;49320;52.512;13.448;2022-11-03T09:25:44;12.60;74.40
63219;DHT22;49320;52.512;13.448;2022-11-03T09:28:11;12.50;74.10
63219;DHT22;49320;52.512;13.448;2022-11-03T09:30:38;12.70;74.00
63219;DHT22;49320;52.512;13.448;2022-11-03T09:33:04;12.80;73.90
63219;DHT22;49320;52.512;13.448;2022-11-03T09:35:31;12.90;73.70
63219;DHT22;49320;52.512;13.448;2022-11-03T09:37:58;12.90;73.70
63219;DHT22;49320;52.512;13.448;2022-11-03T09:40:25;13.10;73.50
63219;DHT22;49320;52.512;13.448;2022-11-03T09:42:52;13.10;73.20
63219;DHT22;49320;52.512;13.448;2022-11-03T09:45:19;13.20;72.90
63219;DHT22;49320;52.512;13.448;2022-11-03T09:47:46;13.30;72.80
63219;DHT22;49320;52.512;13.448;2022-11-03T09:50:16;13.30;72.50
63219;DHT22;49320;52.512;13.448;2022-11-03T09:52:48;13.40;72.50
63219;DHT22;49320;52.512;13.448;2022-11-03T09:55:26;13.40;72.10
63219;DHT22;49320;52.512;13.448;2022-11-03T09:57:56;13.50;71.40
63219;DHT22;49320;52.512;13.448;2022-11-03T10:00:27;13.60;71.90
63219;DHT22;49320;52.512;13.448;2022-11-03T10:02:54;13.70;71.70
63219;DHT22;49320;52.512;13.448;2022-11-03T10:05:25;13.70;71.50
63219;DHT22;49320;52.512;13.448;2022-11-03T10:07:58;13.80;71.00
63219;DHT22;49320;52.512;13.448;2022-11-03T10:10:29;13.90;70.90
63219;DHT22;49320;52.512;13.448;2022-11-03T10:12:56;13.80;71.00
63219;DHT22;49320;52.512;13.448;2022-11-03T10:15:25;14.00;71.00
63219;DHT22;49320;52.512;13.448;2022-11-03T10:17:54;14.10;70.70
63219;DHT22;49320;52.512;13.448;2022-11-03T10:20:21;14.20;70.70
63219;DHT22;49320;52.512;13.448;2022-11-03T10:22:52;14.20;70.60
63219;DHT22;49320;52.512;13.448;2022-11-03T10:25:28;14.30;70.00
63219;DHT22;49320;52.512;13.448;2022-11-03T10:28:20;14.40;69.50
63219;DHT22;49320;52.512;13.448;2022-11-03T10:31:02;14.40;69.10
63219;DHT22;49320;52.512;13.448;2022-11-03T10:33:52;14.60;69.40
63219;DHT22;49320;52.512;13.448;2022-11-03T10:36:28;14.60;69.30
63219;DHT22;49320;52.512;13.448;2022-11-03T10:38:57;14.70;69.10
63219;DHT22;49320;52.512;13.448;2022-11-03T10:41:29;14.80;69.20
63219;DHT22;49320;52.512;13.448;2022-11-03T10:44:17;14.90;68.90
63219;DHT22;49320;52.512;13.448;2022-11-03T10:47:02;15.00;68.40
63219;DHT22;49320;52.512;13.448;2022-11-03T10:49:31;15.10;68.10
63219;DHT22;49320;52.512;13.448;2022-11-03T10:52:25;15.10;68.50
63219;DHT22;49320;52.512;13.448;2022-11-03T10:54:57;15.10;67.80
63219;DHT22;49320;52.512;13.448;2022-11-03T10:57:26;15.30;68.20
63219;DHT22;49320;52.512;13.448;2022-11-03T10:59:53;15.40;67.80
63219;DHT22;49320;52.512;13.448;2022-11-03T11:02:24;15.40;67.50
63219;DHT22;49320;52.512;13.448;2022-11-03T11:04:57;15.40;67.20
63219;DHT22;49320;52.512;13.448;2022-11-03T11:07:31;15.60;67.00
63219;DHT22;49320;52.512;13.448;2022-11-03T11:10:11;15.80;67.10
63219;DHT22;49320;52.512;13.448;2022-11-03T11:15:51;15.80;65.70
63219;DHT22;49320;52.512;13.448;2022-11-03T11:20:58;16.00;66.20
63219;DHT22;49320;52.512;13.448;2022-11-03T11:28:44;16.20;65.90
63219;DHT22;49320;52.512;13.448;2022-11-03T11:33:48;16.30;65.10
63219;DHT22;49320;52.512;13.448;2022-11-03T11:36:21;16.30;65.60
63219;DHT22;49320;52.512;13.448;2022-11-03T11:42:03;16.40;64.60
63219;DHT22;49320;52.512;13.448;2022-11-03T11:52:45;16.60;64.70
63219;DHT22;49320;52.512;13.448;2022-11-03T11:58:20;16.60;64.00
63219;DHT22;49320;52.512;13.448;2022-11-03T12:01:52;16.70;63.80
63219;DHT22;49320;52.512;13.448;2022-11-03T12:03:58;16.70;63.90
63219;DHT22;49320;52.512;13.448;2022-11-03T12:06:36;16.70;64.10
63219;DHT22;49320;52.512;13.448;2022-11-03T12:09:07;16.70;63.60
63219;DHT22;49320;52.512;13.448;2022-11-03T12:11:41;16.70;64.10
63219;DHT22;49320;52.512;13.448;2022-11-03T12:16:58;16.80;63.50
63219;DHT22;49320;52.512;13.448;2022-11-03T12:19:52;16.80;63.60
63219;DHT22;49320;52.512;13.448;2022-11-03T12:25:00;16.80;63.30
63219;DHT22;49320;52.512;13.448;2022-11-03T12:30:05;16.80;63.30
63219;DHT22;49320;52.512;13.448;2022-11-03T12:32:38;16.90;63.30
63219;DHT22;49320;52.512;13.448;2022-11-03T12:35:07;16.90;63.30
63219;DHT22;49320;52.512;13.448;2022-11-03T12:37:35;16.90;63.10
63219;DHT22;49320;52.512;13.448;2022-11-03T12:40:03;16.90;63.10
63219;DHT22;49320;52.512;13.448;2022-11-03T12:42:30;16.90;63.00
63219;DHT22;49320;52.512;13.448;2022-11-03T12:44:57;16.80;62.80
63219;DHT22;49320;52.512;13.448;2022-11-03T12:47:24;16.90;62.80
63219;DHT22;49320;52.512;13.448;2022-11-03T12:49:51;17.00;62.80
63219;DHT22;49320;52.512;13.448;2022-11-03T12:52:17;17.00;62.70
63219;DHT22;49320;52.512;13.448;2022-11-03T12:54:44;17.00;62.40
63219;DHT22;49320;52.512;13.448;2022-11-03T12:57:11;17.00;62.40
63219;DHT22;49320;52.512;13.448;2022-11-03T12:59:38;16.90;62.20
63219;DHT22;49320;52.512;13.448;2022-11-03T13:02:05;17.10;62.20
63219;DHT22;49320;52.512;13.448;2022-11-03T13:04:33;17.10;61.90
63219;DHT22;49320;52.512;13.448;2022-11-03T13:07:00;17.10;61.90
63219;DHT22;49320;52.512;13.448;2022-11-03T13:09:27;17.10;61.80
63219;DHT22;49320;52.512;13.448;2022-11-03T13:11:53;17.10;61.50
63219;DHT22;49320;52.512;13.448;2022-11-03T13:14:39;17.10;61.70
63219;DHT22;49320;52.512;13.448;2022-11-03T13:17:13;17.00;61.40
63219;DHT22;49320;52.512;13.448;2022-11-03T13:19:39;17.10;60.90
63219;DHT22;49320;52.512;13.448;2022-11-03T13:22:06;17.10;62.10
63219;DHT22;49320;52.512;13.448;2022-11-03T13:24:33;17.10;61.60
63219;DHT22;49320;52.512;13.448;2022-11-03T13:27:00;17.00;61.50
63219;DHT22;49320;52.512;13.448;2022-11-03T13:29:27;17.00;61.50
63219;DHT22;49320;52.512;13.448;2022-11-03T13:32:00;17.00;61.50
63219;DHT22;49320;52.512;13.448;2022-11-03T13:34:29;17.10;61.60
63219;DHT22;49320;52.512;13.448;2022-11-03T13:36:56;17.00;61.60
63219;DHT22;49320;52.512;13.448;2022-11-03T13:39:24;17.00;61.40
63219;DHT22;49320;52.512;13.448;2022-11-03T13:41:51;17.00;61.60
63219;DHT22;49320;52.512;13.448;2022-11-03T13:44:17;17.00;61.70
63219;DHT22;49320;52.512;13.448;2022-11-03T13:46:44;17.00;61.50
63219;DHT22;49320;52.512;13.448;2022-11-03T13:49:11;17.00;61.70
63219;DHT22;49320;52.512;13.448;2022-11-03T13:51:58;17.00;61.80
63219;DHT22;49320;52.512;13.448;2022-11-03T13:54:24;17.00;61.70
63219;DHT22;49320;52.512;13.448;2022-11-03T13:57:11;17.00;61.60
63219;DHT22;49320;52.512;13.448;2022-11-03T13:59:58;17.00;61.60
63219;DHT22;49320;52.512;13.448;2022-11-03T14:02:30;17.00;61.60
63219;DHT22;49320;52.512;13.448;2022-11-03T14:05:18;16.90;61.50
63219;DHT22;49320;52.512;13.448;2022-11-03T14:07:44;16.90;61.60
63219;DHT22;49320;52.512;13.448;2022-11-03T14:10:11;16.90;61.50
63219;DHT22;49320;52.512;13.448;2022-11-03T14:12:38;16.80;61.60
63219;DHT22;49320;52.512;13.448;2022-11-03T14:15:10;16.80;61.60
63219;DHT22;49320;52.512;13.448;2022-11-03T14:17:38;16.80;61.70
63219;DHT22;49320;52.512;13.448;2022-11-03T14:20:07;16.70;61.80
63219;DHT22;49320;52.512;13.448;2022-11-03T14:22:38;16.70;61.80
63219;DHT22;49320;52.512;13.448;2022-11-03T14:25:06;16.70;61.90
63219;DHT22;49320;52.512;13.448;2022-11-03T14:27:33;16.70;61.90
63219;DHT22;49320;52.512;13.448;2022-11-03T14:30:00;16.70;62.10
63219;DHT22;49320;52.512;13.448;2022-11-03T14:32:27;16.60;62.00
63219;DHT22;49320;52.512;13.448;2022-11-03T14:34:54;16.50;61.90
63219;DHT22;49320;52.512;13.448;2022-11-03T14:37:21;16.60;61.90
63219;DHT22;49320;52.512;13.448;2022-11-03T14:39:50;16.60;61.90
63219;DHT22;49320;52.512;13.448;2022-11-03T14:42:17;16.50;61.80
63219;DHT22;49320;52.512;13.448;2022-11-03T14:44:45;16.50;61.80
63219;DHT22;49320;52.512;13.448;2022-11-03T14:47:14;16.50;62.00
63219;DHT22;49320;52.512;13.448;2022-11-03T14:49:44;16.40;62.00
63219;DHT22;49320;52.512;13.448;2022-11-03T14:52:11;16.40;62.00
63219;DHT22;49320;52.512;13.448;2022-11-03T14:54:39;16.40;62.10
63219;DHT22;49320;52.512;13.448;2022-11-03T14:57:06;16.30;62.00
63219;DHT22;49320;52.512;13.448;2022-11-03T14:59:35;16.30;62.10
63219;DHT22;49320;52.512;13.448;2022-11-03T15:02:03;16.30;62.10
63219;DHT22;49320;52.512;13.448;2022-11-03T15:04:30;16.30;62.20
63219;DHT22;49320;52.512;13.448;2022-11-03T15:06:57;16.20;62.30
63219;DHT22;49320;52.512;13.448;2022-11-03T15:09:24;16.20;62.40
63219;DHT22;49320;52.512;13.448;2022-11-03T15:11:51;16.10;62.50
63219;DHT22;49320;52.512;13.448;2022-11-03T15:14:18;16.10;62.50
63219;DHT22;49320;52.512;13.448;2022-11-03T15:16:44;16.10;62.70
63219;DHT22;49320;52.512;13.448;2022-11-03T15:19:11;16.00;62.70
63219;DHT22;49320;52.512;13.448;2022-11-03T15:21:38;16.00;62.80
63219;DHT22;49320;52.512;13.448;2022-11-03T15:24:05;16.00;62.90
63219;DHT22;49320;52.512;13.448;2022-11-03T15:26:52;15.90;62.90
63219;DHT22;49320;52.512;13.448;2022-11-03T15:29:19;15.90;63.00
63219;DHT22;49320;52.512;13.448;2022-11-03T15:31:46;15.80;63.00
63219;DHT22;49320;52.512;13.448;2022-11-03T15:34:14;15.80;63.10
63219;DHT22;49320;52.512;13.448;2022-11-03T15:36:41;15.80;63.20
63219;DHT22;49320;52.512;13.448;2022-11-03T15:39:08;15.70;63.30
63219;DHT22;49320;52.512;13.448;2022-11-03T15:41:35;15.70;63.40
63219;DHT22;49320;52.512;13.448;2022-11-03T15:44:01;15.60;63.60
63219;DHT22;49320;52.512;13.448;2022-11-03T15:46:28;15.60;63.60
63219;DHT22;49320;52.512;13.448;2022-11-03T15:48:55;15.50;63.70
63219;DHT22;49320;52.512;13.448;2022-11-03T15:51:23;15.50;63.80
63219;DHT22;49320;52.512;13.448;2022-11-03T15:53:50;15.40;63.80
63219;DHT22;49320;52.512;13.448;2022-11-03T15:56:24;15.40;63.90
63219;DHT22;49320;52.512;13.448;2022-11-03T15:58:52;15.40;64.00
63219;DHT22;49320;52.512;13.448;2022-11-03T16:01:18;15.30;64.00
63219;DHT22;49320;52.512;13.448;2022-11-03T16:03:46;15.20;64.00
63219;DHT22;49320;52.512;13.448;2022-11-03T16:06:12;15.20;64.10
63219;DHT22;49320;52.512;13.448;2022-11-03T16:08:39;15.20;64.20
63219;DHT22;49320;52.512;13.448;2022-11-03T16:11:06;15.20;64.30
63219;DHT22;49320;52.512;13.448;2022-11-03T16:13:34;15.10;64.40
63219;DHT22;49320;52.512;13.448;2022-11-03T16:16:01;15.10;64.40
63219;DHT22;49320;52.512;13.448;2022-11-03T16:18:28;15.10;64.50
63219;DHT22;49320;52.512;13.448;2022-11-03T16:20:55;15.00;64.50
63219;DHT22;49320;52.512;13.448;2022-11-03T16:23:22;15.00;64.50
63219;DHT22;49320;52.512;13.448;2022-11-03T16:25:48;15.00;64.60
63219;DHT22;49320;52.512;13.448;2022-11-03T16:28:15;14.90;64.60
63219;DHT22;49320;52.512;13.448;2022-11-03T16:30:42;15.00;64.70
63219;DHT22;49320;52.512;13.448;2022-11-03T16:33:09;14.90;64.70
63219;DHT22;49320;52.512;13.448;2022-11-03T16:35:36;15.00;64.90
63219;DHT22;49320;52.512;13.448;2022-11-03T16:38:03;14.90;64.80
63219;DHT22;49320;52.512;13.448;2022-11-03T16:40:31;14.90;64.90
63219;DHT22;49320;52.512;13.448;2022-11-03T16:42:58;14.90;64.90
63219;DHT22;49320;52.512;13.448;2022-11-03T16:45:25;14.80;64.90